Wales Airport

About
Name: Wales Airport
Identifier:  WAA/PAIW
Local Time:  20. Aug 06:07 AKDT
Location
Flights per Day
4 flights
Distance: 132km (82mi)
Punctuality
80% (0 flights per day delayed)
Delay Average: 60 minutes
Current Weather
 10 C (Humidity: 93%)
  11kt (20km/h / 12mph) from 30°
  Overcast at 1,100 feet (335 meter)
  16km (10 mi.)
 METAR PAIW 201256Z AUTO 03011KT 10SM OVC011 10/09 A3006 RMK AO2 SLP182 T01000089

Current Flights

Departures
Number Departure To Airline
 8E892 16:55 +944  Nome Bering Air
Arrivals
Number Arrival From Airline

Current Delays

Departures
N/A
Arrivals
N/A

Destinations

Top Destinations
Airport Flights
per week
Seats
per week
  Nome (OME) 1 - 0 0

Airlines & Planes

Top Airlines
Airline Flights
per Day
Seats
per Day
Bering Air 0 -
Top Plane Types
Model Flights Seats
Piper PA-31-350 0.1/day - 0
Beech B200 Super King Air 0.1/day - 0
Beech 1900D 0.0/day - 0